sensor_id;sensor_type;location;lat;lon;timestamp;temperature;humidity
81726;DHT22;71135;16.738;-14.648;2023-07-24T00:00:41;18.90;70.00
81726;DHT22;71135;16.738;-14.648;2023-07-24T00:03:10;18.90;70.00
81726;DHT22;71135;16.738;-14.648;2023-07-24T00:05:39;18.90;70.00
81726;DHT22;71135;16.738;-14.648;2023-07-24T00:08:08;18.80;69.90
81726;DHT22;71135;16.738;-14.648;2023-07-24T00:10:38;18.80;69.90
81726;DHT22;71135;16.738;-14.648;2023-07-24T00:13:10;18.80;69.90
81726;DHT22;71135;16.738;-14.648;2023-07-24T00:15:39;18.80;69.90
81726;DHT22;71135;16.738;-14.648;2023-07-24T00:18:08;18.80;70.00
81726;DHT22;71135;16.738;-14.648;2023-07-24T00:20:38;18.80;70.00
81726;DHT22;71135;16.738;-14.648;2023-07-24T00:23:07;18.70;70.00
81726;DHT22;71135;16.738;-14.648;2023-07-24T00:25:36;18.70;70.00
81726;DHT22;71135;16.738;-14.648;2023-07-24T00:28:05;18.70;70.00
81726;DHT22;71135;16.738;-14.648;2023-07-24T00:30:37;18.70;70.10
81726;DHT22;71135;16.738;-14.648;2023-07-24T00:33:07;18.70;70.10
81726;DHT22;71135;16.738;-14.648;2023-07-24T00:35:36;18.70;70.00
81726;DHT22;71135;16.738;-14.648;2023-07-24T00:38:05;18.70;70.10
81726;DHT22;71135;16.738;-14.648;2023-07-24T00:40:34;18.80;70.10
81726;DHT22;71135;16.738;-14.648;2023-07-24T00:43:03;18.80;70.10
81726;DHT22;71135;16.738;-14.648;2023-07-24T00:45:33;18.80;70.10
81726;DHT22;71135;16.738;-14.648;2023-07-24T00:48:05;18.80;70.10
81726;DHT22;71135;16.738;-14.648;2023-07-24T00:50:36;18.80;70.10
81726;DHT22;71135;16.738;-14.648;2023-07-24T00:53:06;18.80;70.20
81726;DHT22;71135;16.738;-14.648;2023-07-24T00:55:35;18.70;70.30
81726;DHT22;71135;16.738;-14.648;2023-07-24T00:58:04;18.70;70.20
81726;DHT22;71135;16.738;-14.648;2023-07-24T01:00:34;18.70;70.30
81726;DHT22;71135;16.738;-14.648;2023-07-24T01:03:06;18.60;70.30
81726;DHT22;71135;16.738;-14.648;2023-07-24T01:05:37;18.60;70.50
81726;DHT22;71135;16.738;-14.648;2023-07-24T01:08:07;18.60;70.60
81726;DHT22;71135;16.738;-14.648;2023-07-24T01:10:36;18.60;70.60
81726;DHT22;71135;16.738;-14.648;2023-07-24T01:13:10;18.60;70.60
81726;DHT22;71135;16.738;-14.648;2023-07-24T01:15:50;18.60;70.50
81726;DHT22;71135;16.738;-14.648;2023-07-24T01:18:24;18.60;70.60
81726;DHT22;71135;16.738;-14.648;2023-07-24T01:20:54;18.60;70.70
81726;DHT22;71135;16.738;-14.648;2023-07-24T01:23:43;18.60;70.50
81726;DHT22;71135;16.738;-14.648;2023-07-24T01:26:17;18.50;70.70
81726;DHT22;71135;16.738;-14.648;2023-07-24T01:28:46;18.50;70.70
81726;DHT22;71135;16.738;-14.648;2023-07-24T01:31:16;18.50;70.80
81726;DHT22;71135;16.738;-14.648;2023-07-24T01:33:45;18.60;70.80
81726;DHT22;71135;16.738;-14.648;2023-07-24T01:36:18;18.50;70.80
81726;DHT22;71135;16.738;-14.648;2023-07-24T01:38:48;18.50;70.90
81726;DHT22;71135;16.738;-14.648;2023-07-24T01:41:21;18.50;70.90
81726;DHT22;71135;16.738;-14.648;2023-07-24T01:43:50;18.50;70.90
81726;DHT22;71135;16.738;-14.648;2023-07-24T01:46:20;18.50;70.90
81726;DHT22;71135;16.738;-14.648;2023-07-24T01:48:49;18.50;70.90
81726;DHT22;71135;16.738;-14.648;2023-07-24T01:51:21;18.50;70.70
81726;DHT22;71135;16.738;-14.648;2023-07-24T01:53:50;18.50;70.70
81726;DHT22;71135;16.738;-14.648;2023-07-24T01:56:22;18.50;70.70
81726;DHT22;71135;16.738;-14.648;2023-07-24T01:58:51;18.50;70.70
81726;DHT22;71135;16.738;-14.648;2023-07-24T02:01:20;18.50;70.70
81726;DHT22;71135;16.738;-14.648;2023-07-24T02:03:49;18.60;70.70
81726;DHT22;71135;16.738;-14.648;2023-07-24T02:06:18;18.60;70.60
81726;DHT22;71135;16.738;-14.648;2023-07-24T02:08:48;18.60;70.50
81726;DHT22;71135;16.738;-14.648;2023-07-24T02:11:17;18.60;70.40
81726;DHT22;71135;16.738;-14.648;2023-07-24T02:13:50;18.70;70.30
81726;DHT22;71135;16.738;-14.648;2023-07-24T02:16:19;18.70;70.40
81726;DHT22;71135;16.738;-14.648;2023-07-24T02:18:48;18.70;70.30
81726;DHT22;71135;16.738;-14.648;2023-07-24T02:21:17;18.70;70.20
81726;DHT22;71135;16.738;-14.648;2023-07-24T02:23:46;18.70;70.20
81726;DHT22;71135;16.738;-14.648;2023-07-24T02:26:15;18.70;70.10
81726;DHT22;71135;16.738;-14.648;2023-07-24T02:28:45;18.70;70.00
81726;DHT22;71135;16.738;-14.648;2023-07-24T02:31:16;18.70;70.00
81726;DHT22;71135;16.738;-14.648;2023-07-24T02:33:46;18.80;70.00
81726;DHT22;71135;16.738;-14.648;2023-07-24T02:36:15;18.70;70.00
81726;DHT22;71135;16.738;-14.648;2023-07-24T02:38:44;18.70;70.00
81726;DHT22;71135;16.738;-14.648;2023-07-24T02:41:14;18.70;70.10
81726;DHT22;71135;16.738;-14.648;2023-07-24T02:43:43;18.70;70.10
81726;DHT22;71135;16.738;-14.648;2023-07-24T02:46:12;18.70;70.20
81726;DHT22;71135;16.738;-14.648;2023-07-24T02:48:45;18.70;70.20
81726;DHT22;71135;16.738;-14.648;2023-07-24T02:51:14;18.60;70.30
81726;DHT22;71135;16.738;-14.648;2023-07-24T02:53:43;18.60;70.20
81726;DHT22;71135;16.738;-14.648;2023-07-24T02:56:12;18.60;70.30
81726;DHT22;71135;16.738;-14.648;2023-07-24T02:58:42;18.60;70.40
81726;DHT22;71135;16.738;-14.648;2023-07-24T03:01:11;18.50;70.50
81726;DHT22;71135;16.738;-14.648;2023-07-24T03:03:40;18.50;70.50
81726;DHT22;71135;16.738;-14.648;2023-07-24T03:06:12;18.50;70.60
81726;DHT22;71135;16.738;-14.648;2023-07-24T03:08:41;18.50;70.60
81726;DHT22;71135;16.738;-14.648;2023-07-24T03:11:10;18.50;70.60
81726;DHT22;71135;16.738;-14.648;2023-07-24T03:13:39;18.50;70.60
81726;DHT22;71135;16.738;-14.648;2023-07-24T03:16:09;18.50;70.70
81726;DHT22;71135;16.738;-14.648;2023-07-24T03:18:38;18.50;70.70
81726;DHT22;71135;16.738;-14.648;2023-07-24T03:21:08;18.50;70.70
81726;DHT22;71135;16.738;-14.648;2023-07-24T03:23:40;18.50;70.80
81726;DHT22;71135;16.738;-14.648;2023-07-24T03:26:09;18.50;70.90
81726;DHT22;71135;16.738;-14.648;2023-07-24T03:28:38;18.50;70.80
81726;DHT22;71135;16.738;-14.648;2023-07-24T03:31:07;18.50;70.80
81726;DHT22;71135;16.738;-14.648;2023-07-24T03:33:37;18.60;70.80
81726;DHT22;71135;16.738;-14.648;2023-07-24T03:36:06;18.60;70.70
81726;DHT22;71135;16.738;-14.648;2023-07-24T03:38:40;18.60;70.70
81726;DHT22;71135;16.738;-14.648;2023-07-24T03:41:11;18.60;70.70
81726;DHT22;71135;16.738;-14.648;2023-07-24T03:43:41;18.60;70.60
81726;DHT22;71135;16.738;-14.648;2023-07-24T03:46:10;18.60;70.50
81726;DHT22;71135;16.738;-14.648;2023-07-24T03:48:39;18.60;70.50
81726;DHT22;71135;16.738;-14.648;2023-07-24T03:51:08;18.60;70.60
81726;DHT22;71135;16.738;-14.648;2023-07-24T03:53:40;18.50;70.60
81726;DHT22;71135;16.738;-14.648;2023-07-24T03:56:09;18.50;70.60
81726;DHT22;71135;16.738;-14.648;2023-07-24T03:58:38;18.50;70.60
81726;DHT22;71135;16.738;-14.648;2023-07-24T04:01:08;18.50;70.60
81726;DHT22;71135;16.738;-14.648;2023-07-24T04:03:37;18.50;70.70
81726;DHT22;71135;16.738;-14.648;2023-07-24T04:06:07;18.50;70.70
81726;DHT22;71135;16.738;-14.648;2023-07-24T04:08:36;18.50;70.70
81726;DHT22;71135;16.738;-14.648;2023-07-24T04:11:05;18.50;70.80
81726;DHT22;71135;16.738;-14.648;2023-07-24T04:13:34;18.50;70.90
81726;DHT22;71135;16.738;-14.648;2023-07-24T04:16:04;18.50;70.90
81726;DHT22;71135;16.738;-14.648;2023-07-24T04:18:33;18.50;70.90
81726;DHT22;71135;16.738;-14.648;2023-07-24T04:21:02;18.50;71.00
81726;DHT22;71135;16.738;-14.648;2023-07-24T04:23:31;18.50;71.00
81726;DHT22;71135;16.738;-14.648;2023-07-24T04:26:01;18.50;71.00
81726;DHT22;71135;16.738;-14.648;2023-07-24T04:28:32;18.50;70.90
81726;DHT22;71135;16.738;-14.648;2023-07-24T04:31:02;18.50;70.90
81726;DHT22;71135;16.738;-14.648;2023-07-24T04:33:31;18.50;70.90
81726;DHT22;71135;16.738;-14.648;2023-07-24T04:36:00;18.50;70.90
81726;DHT22;71135;16.738;-14.648;2023-07-24T04:38:29;18.60;70.80
81726;DHT22;71135;16.738;-14.648;2023-07-24T04:41:00;18.60;70.70
81726;DHT22;71135;16.738;-14.648;2023-07-24T04:43:32;18.60;70.70
81726;DHT22;71135;16.738;-14.648;2023-07-24T04:46:01;18.60;70.60
81726;DHT22;71135;16.738;-14.648;2023-07-24T04:48:30;18.70;70.50
81726;DHT22;71135;16.738;-14.648;2023-07-24T04:51:00;18.70;70.50
81726;DHT22;71135;16.738;-14.648;2023-07-24T04:53:29;18.70;70.40
81726;DHT22;71135;16.738;-14.648;2023-07-24T04:55:58;18.70;70.40
81726;DHT22;71135;16.738;-14.648;2023-07-24T04:58:27;18.70;70.30
81726;DHT22;71135;16.738;-14.648;2023-07-24T05:01:02;18.70;70.30
81726;DHT22;71135;16.738;-14.648;2023-07-24T05:03:31;18.80;70.20
81726;DHT22;71135;16.738;-14.648;2023-07-24T05:06:01;18.80;70.20
81726;DHT22;71135;16.738;-14.648;2023-07-24T05:08:30;18.80;70.10
81726;DHT22;71135;16.738;-14.648;2023-07-24T05:10:59;18.80;70.10
81726;DHT22;71135;16.738;-14.648;2023-07-24T05:13:28;18.80;70.10
81726;DHT22;71135;16.738;-14.648;2023-07-24T05:16:00;18.80;70.10
81726;DHT22;71135;16.738;-14.648;2023-07-24T05:18:29;18.70;70.10
81726;DHT22;71135;16.738;-14.648;2023-07-24T05:20:58;18.70;70.00
81726;DHT22;71135;16.738;-14.648;2023-07-24T05:23:28;18.70;70.10
81726;DHT22;71135;16.738;-14.648;2023-07-24T05:25:57;18.70;70.10
81726;DHT22;71135;16.738;-14.648;2023-07-24T05:28:28;18.70;70.10
81726;DHT22;71135;16.738;-14.648;2023-07-24T05:31:03;18.70;70.10
81726;DHT22;71135;16.738;-14.648;2023-07-24T05:33:34;18.80;70.10
81726;DHT22;71135;16.738;-14.648;2023-07-24T05:36:04;18.80;70.20
81726;DHT22;71135;16.738;-14.648;2023-07-24T05:38:33;18.90;70.10
81726;DHT22;71135;16.738;-14.648;2023-07-24T05:41:03;19.00;69.80
81726;DHT22;71135;16.738;-14.648;2023-07-24T05:43:32;19.00;69.60
81726;DHT22;71135;16.738;-14.648;2023-07-24T05:46:04;19.00;69.60
81726;DHT22;71135;16.738;-14.648;2023-07-24T05:48:33;19.10;69.60
81726;DHT22;71135;16.738;-14.648;2023-07-24T05:51:02;19.10;69.40
81726;DHT22;71135;16.738;-14.648;2023-07-24T05:53:32;19.10;69.40
81726;DHT22;71135;16.738;-14.648;2023-07-24T05:56:02;19.10;69.30
81726;DHT22;71135;16.738;-14.648;2023-07-24T05:58:31;19.20;69.30
81726;DHT22;71135;16.738;-14.648;2023-07-24T06:01:00;19.20;69.00
81726;DHT22;71135;16.738;-14.648;2023-07-24T06:03:33;19.30;69.00
81726;DHT22;71135;16.738;-14.648;2023-07-24T06:06:02;19.30;68.90
81726;DHT22;71135;16.738;-14.648;2023-07-24T06:08:31;19.30;68.80
81726;DHT22;71135;16.738;-14.648;2023-07-24T06:11:01;19.30;68.70
81726;DHT22;71135;16.738;-14.648;2023-07-24T06:13:30;19.30;68.80
81726;DHT22;71135;16.738;-14.648;2023-07-24T06:15:59;19.30;68.70
81726;DHT22;71135;16.738;-14.648;2023-07-24T06:18:28;19.30;68.70
81726;DHT22;71135;16.738;-14.648;2023-07-24T06:21:00;19.40;68.70
81726;DHT22;71135;16.738;-14.648;2023-07-24T06:23:29;19.40;68.70
81726;DHT22;71135;16.738;-14.648;2023-07-24T06:25:59;19.50;68.50
81726;DHT22;71135;16.738;-14.648;2023-07-24T06:28:28;19.50;68.30
81726;DHT22;71135;16.738;-14.648;2023-07-24T06:30:58;19.50;68.10
81726;DHT22;71135;16.738;-14.648;2023-07-24T06:33:27;19.50;68.10
81726;DHT22;71135;16.738;-14.648;2023-07-24T06:35:56;19.60;68.20
81726;DHT22;71135;16.738;-14.648;2023-07-24T06:38:28;19.70;68.10
81726;DHT22;71135;16.738;-14.648;2023-07-24T06:40:57;19.70;68.00
81726;DHT22;71135;16.738;-14.648;2023-07-24T06:43:26;19.70;68.00
81726;DHT22;71135;16.738;-14.648;2023-07-24T06:45:56;19.90;67.80
81726;DHT22;71135;16.738;-14.648;2023-07-24T06:48:25;19.90;67.60
81726;DHT22;71135;16.738;-14.648;2023-07-24T06:50:54;20.00;67.50
81726;DHT22;71135;16.738;-14.648;2023-07-24T06:53:23;20.00;67.40
81726;DHT22;71135;16.738;-14.648;2023-07-24T06:55:55;20.00;67.40
81726;DHT22;71135;16.738;-14.648;2023-07-24T06:58:24;20.00;67.40
81726;DHT22;71135;16.738;-14.648;2023-07-24T07:00:53;20.10;67.30
81726;DHT22;71135;16.738;-14.648;2023-07-24T07:03:23;20.10;67.30
81726;DHT22;71135;16.738;-14.648;2023-07-24T07:05:58;20.10;67.20
81726;DHT22;71135;16.738;-14.648;2023-07-24T07:08:27;20.10;67.10
81726;DHT22;71135;16.738;-14.648;2023-07-24T07:11:00;20.10;67.20
81726;DHT22;71135;16.738;-14.648;2023-07-24T07:13:29;20.20;67.20
81726;DHT22;71135;16.738;-14.648;2023-07-24T07:15:58;20.30;67.20
81726;DHT22;71135;16.738;-14.648;2023-07-24T07:18:27;20.30;67.10
81726;DHT22;71135;16.738;-14.648;2023-07-24T07:20:57;20.40;66.90
81726;DHT22;71135;16.738;-14.648;2023-07-24T07:23:26;20.40;66.90
81726;DHT22;71135;16.738;-14.648;2023-07-24T07:26:01;20.50;67.00
81726;DHT22;71135;16.738;-14.648;2023-07-24T07:28:33;20.50;67.00
81726;DHT22;71135;16.738;-14.648;2023-07-24T07:31:04;20.50;66.90
81726;DHT22;71135;16.738;-14.648;2023-07-24T07:33:36;20.50;67.00
81726;DHT22;71135;16.738;-14.648;2023-07-24T07:36:17;20.60;66.90
81726;DHT22;71135;16.738;-14.648;2023-07-24T07:38:49;20.80;66.50
81726;DHT22;71135;16.738;-14.648;2023-07-24T07:41:26;20.90;65.90
81726;DHT22;71135;16.738;-14.648;2023-07-24T07:44:00;21.00;65.70
81726;DHT22;71135;16.738;-14.648;2023-07-24T07:46:38;21.10;65.60
81726;DHT22;71135;16.738;-14.648;2023-07-24T07:49:08;21.30;65.00
81726;DHT22;71135;16.738;-14.648;2023-07-24T07:51:51;21.40;64.50
81726;DHT22;71135;16.738;-14.648;2023-07-24T07:54:23;21.50;64.40
81726;DHT22;71135;16.738;-14.648;2023-07-24T07:57:10;21.50;64.20
81726;DHT22;71135;16.738;-14.648;2023-07-24T07:59:44;21.70;63.90
81726;DHT22;71135;16.738;-14.648;2023-07-24T08:02:16;21.80;63.80
81726;DHT22;71135;16.738;-14.648;2023-07-24T08:04:49;21.90;63.40
81726;DHT22;71135;16.738;-14.648;2023-07-24T08:07:20;21.80;63.50
81726;DHT22;71135;16.738;-14.648;2023-07-24T08:09:52;21.70;63.70
81726;DHT22;71135;16.738;-14.648;2023-07-24T08:12:26;21.70;63.90
81726;DHT22;71135;16.738;-14.648;2023-07-24T08:15:08;21.70;63.90
81726;DHT22;71135;16.738;-14.648;2023-07-24T08:17:42;21.70;63.50
81726;DHT22;71135;16.738;-14.648;2023-07-24T08:20:22;21.70;63.50
81726;DHT22;71135;16.738;-14.648;2023-07-24T08:22:55;21.70;63.80
81726;DHT22;71135;16.738;-14.648;2023-07-24T08:25:33;21.90;63.20
81726;DHT22;71135;16.738;-14.648;2023-07-24T08:28:05;22.30;62.60
81726;DHT22;71135;16.738;-14.648;2023-07-24T08:30:50;22.60;62.10
81726;DHT22;71135;16.738;-14.648;2023-07-24T08:33:30;22.90;61.70
81726;DHT22;71135;16.738;-14.648;2023-07-24T08:36:08;23.50;60.70
81726;DHT22;71135;16.738;-14.648;2023-07-24T08:38:40;24.00;59.80
81726;DHT22;71135;16.738;-14.648;2023-07-24T08:41:18;24.90;58.00
81726;DHT22;71135;16.738;-14.648;2023-07-24T08:44:04;26.00;56.30
81726;DHT22;71135;16.738;-14.648;2023-07-24T08:46:35;27.00;53.90
81726;DHT22;71135;16.738;-14.648;2023-07-24T08:49:12;27.20;53.00
81726;DHT22;71135;16.738;-14.648;2023-07-24T08:51:42;27.00;53.20
81726;DHT22;71135;16.738;-14.648;2023-07-24T08:54:15;27.50;53.60
81726;DHT22;71135;16.738;-14.648;2023-07-24T08:57:03;28.30;51.80
81726;DHT22;71135;16.738;-14.648;2023-07-24T08:59:51;28.50;51.20
81726;DHT22;71135;16.738;-14.648;2023-07-24T09:02:24;28.30;51.00
81726;DHT22;71135;16.738;-14.648;2023-07-24T09:05:11;27.70;51.20
81726;DHT22;71135;16.738;-14.648;2023-07-24T09:07:42;27.50;52.30
81726;DHT22;71135;16.738;-14.648;2023-07-24T09:10:14;27.80;51.70
81726;DHT22;71135;16.738;-14.648;2023-07-24T09:12:46;27.40;51.40
81726;DHT22;71135;16.738;-14.648;2023-07-24T09:15:20;27.10;52.20
81726;DHT22;71135;16.738;-14.648;2023-07-24T09:17:53;27.20;51.80
81726;DHT22;71135;16.738;-14.648;2023-07-24T09:20:25;27.10;52.60
81726;DHT22;71135;16.738;-14.648;2023-07-24T09:22:54;27.00;51.90
81726;DHT22;71135;16.738;-14.648;2023-07-24T09:25:40;26.80;51.70
81726;DHT22;71135;16.738;-14.648;2023-07-24T09:28:35;26.90;51.50
81726;DHT22;71135;16.738;-14.648;2023-07-24T09:31:50;27.50;51.30
81726;DHT22;71135;16.738;-14.648;2023-07-24T09:38:17;28.10;50.20
81726;DHT22;71135;16.738;-14.648;2023-07-24T09:40:55;27.40;50.80
81726;DHT22;71135;16.738;-14.648;2023-07-24T09:43:25;26.80;51.50
81726;DHT22;71135;16.738;-14.648;2023-07-24T09:49:21;26.00;53.20
81726;DHT22;71135;16.738;-14.648;2023-07-24T09:58:49;26.00;53.20
81726;DHT22;71135;16.738;-14.648;2023-07-24T10:01:25;25.90;52.70
81726;DHT22;71135;16.738;-14.648;2023-07-24T10:10:49;25.00;54.00
81726;DHT22;71135;16.738;-14.648;2023-07-24T10:13:27;24.80;54.00
81726;DHT22;71135;16.738;-14.648;2023-07-24T10:16:14;24.60;54.50
81726;DHT22;71135;16.738;-14.648;2023-07-24T10:22:04;25.00;55.10
81726;DHT22;71135;16.738;-14.648;2023-07-24T10:24:49;27.00;52.70
81726;DHT22;71135;16.738;-14.648;2023-07-24T10:27:25;29.20;50.50
81726;DHT22;71135;16.738;-14.648;2023-07-24T10:31:22;31.00;47.10
81726;DHT22;71135;16.738;-14.648;2023-07-24T10:36:33;29.60;47.50
81726;DHT22;71135;16.738;-14.648;2023-07-24T10:39:23;29.40;48.00
81726;DHT22;71135;16.738;-14.648;2023-07-24T10:45:51;29.40;48.10
81726;DHT22;71135;16.738;-14.648;2023-07-24T10:48:42;28.70;49.20
81726;DHT22;71135;16.738;-14.648;2023-07-24T10:58:27;28.70;48.80
81726;DHT22;71135;16.738;-14.648;2023-07-24T11:10:36;28.90;49.60
81726;DHT22;71135;16.738;-14.648;2023-07-24T11:13:21;29.60;48.30
81726;DHT22;71135;16.738;-14.648;2023-07-24T11:22:50;30.90;47.20
81726;DHT22;71135;16.738;-14.648;2023-07-24T11:29:11;31.10;46.20
81726;DHT22;71135;16.738;-14.648;2023-07-24T11:34:05;30.40;46.50
81726;DHT22;71135;16.738;-14.648;2023-07-24T11:41:33;27.50;50.10
81726;DHT22;71135;16.738;-14.648;2023-07-24T11:51:13;27.80;50.40
81726;DHT22;71135;16.738;-14.648;2023-07-24T11:53:42;27.50;50.20
81726;DHT22;71135;16.738;-14.648;2023-07-24T11:56:14;27.00;51.00
81726;DHT22;71135;16.738;-14.648;2023-07-24T11:58:43;26.80;51.70
81726;DHT22;71135;16.738;-14.648;2023-07-24T12:01:13;26.80;52.20
81726;DHT22;71135;16.738;-14.648;2023-07-24T12:07:07;27.30;51.60
81726;DHT22;71135;16.738;-14.648;2023-07-24T12:09:51;27.50;51.10
81726;DHT22;71135;16.738;-14.648;2023-07-24T12:12:20;27.50;51.20
81726;DHT22;71135;16.738;-14.648;2023-07-24T12:15:01;27.60;51.10
81726;DHT22;71135;16.738;-14.648;2023-07-24T12:17:32;27.60;51.40
81726;DHT22;71135;16.738;-14.648;2023-07-24T12:20:02;27.50;51.60
81726;DHT22;71135;16.738;-14.648;2023-07-24T12:22:35;27.50;51.90
81726;DHT22;71135;16.738;-14.648;2023-07-24T12:25:05;27.50;51.90
81726;DHT22;71135;16.738;-14.648;2023-07-24T12:27:47;27.40;52.00
81726;DHT22;71135;16.738;-14.648;2023-07-24T12:30:43;27.20;52.30
81726;DHT22;71135;16.738;-14.648;2023-07-24T12:33:15;27.10;52.90
81726;DHT22;71135;16.738;-14.648;2023-07-24T12:35:44;27.20;53.10
81726;DHT22;71135;16.738;-14.648;2023-07-24T12:38:16;27.40;53.00
81726;DHT22;71135;16.738;-14.648;2023-07-24T12:40:45;27.50;52.90
81726;DHT22;71135;16.738;-14.648;2023-07-24T12:43:15;27.80;51.90
81726;DHT22;71135;16.738;-14.648;2023-07-24T12:45:44;27.90;51.70
81726;DHT22;71135;16.738;-14.648;2023-07-24T12:48:13;27.90;52.00
81726;DHT22;71135;16.738;-14.648;2023-07-24T12:50:43;27.80;52.20
81726;DHT22;71135;16.738;-14.648;2023-07-24T12:53:16;27.60;52.20
81726;DHT22;71135;16.738;-14.648;2023-07-24T12:55:46;27.30;52.60
81726;DHT22;71135;16.738;-14.648;2023-07-24T12:58:15;26.80;53.10
81726;DHT22;71135;16.738;-14.648;2023-07-24T13:00:45;26.30;53.70
81726;DHT22;71135;16.738;-14.648;2023-07-24T13:03:14;25.90;54.10
81726;DHT22;71135;16.738;-14.648;2023-07-24T13:05:43;25.50;54.70
81726;DHT22;71135;16.738;-14.648;2023-07-24T13:08:24;25.00;54.90
81726;DHT22;71135;16.738;-14.648;2023-07-24T13:10:53;24.60;54.80
81726;DHT22;71135;16.738;-14.648;2023-07-24T13:13:22;24.40;55.40
81726;DHT22;71135;16.738;-14.648;2023-07-24T13:15:52;24.10;56.00
81726;DHT22;71135;16.738;-14.648;2023-07-24T13:18:21;23.90;56.50
81726;DHT22;71135;16.738;-14.648;2023-07-24T13:20:50;23.70;57.00
81726;DHT22;71135;16.738;-14.648;2023-07-24T13:23:19;23.60;57.60
81726;DHT22;71135;16.738;-14.648;2023-07-24T13:25:52;23.50;58.00
81726;DHT22;71135;16.738;-14.648;2023-07-24T13:28:21;23.60;58.00
81726;DHT22;71135;16.738;-14.648;2023-07-24T13:30:50;23.80;58.00
81726;DHT22;71135;16.738;-14.648;2023-07-24T13:33:20;24.10;57.60
81726;DHT22;71135;16.738;-14.648;2023-07-24T13:35:50;24.40;57.00
81726;DHT22;71135;16.738;-14.648;2023-07-24T13:38:19;24.80;56.70
81726;DHT22;71135;16.738;-14.648;2023-07-24T13:40:51;25.10;56.10
81726;DHT22;71135;16.738;-14.648;2023-07-24T13:46:19;25.60;55.80
81726;DHT22;71135;16.738;-14.648;2023-07-24T13:48:55;25.80;55.20
81726;DHT22;71135;16.738;-14.648;2023-07-24T13:55:10;26.00;54.40
81726;DHT22;71135;16.738;-14.648;2023-07-24T13:57:47;25.80;54.60
81726;DHT22;71135;16.738;-14.648;2023-07-24T14:00:32;25.80;54.60
81726;DHT22;71135;16.738;-14.648;2023-07-24T14:19:39;23.80;56.50
81726;DHT22;71135;16.738;-14.648;2023-07-24T14:24:24;23.40;57.00
81726;DHT22;71135;16.738;-14.648;2023-07-24T14:25:29;23.00;57.40
81726;DHT22;71135;16.738;-14.648;2023-07-24T14:28:17;22.80;57.90
81726;DHT22;71135;16.738;-14.648;2023-07-24T14:40:37;23.20;57.40
81726;DHT22;71135;16.738;-14.648;2023-07-24T14:49:51;23.00;57.20
81726;DHT22;71135;16.738;-14.648;2023-07-24T14:52:23;22.70;57.40
81726;DHT22;71135;16.738;-14.648;2023-07-24T14:55:04;22.60;57.80
81726;DHT22;71135;16.738;-14.648;2023-07-24T14:57:49;22.60;58.00
81726;DHT22;71135;16.738;-14.648;2023-07-24T15:00:24;22.60;59.50
81726;DHT22;71135;16.738;-14.648;2023-07-24T15:02:56;22.30;60.20
81726;DHT22;71135;16.738;-14.648;2023-07-24T15:05:25;21.90;60.90
81726;DHT22;71135;16.738;-14.648;2023-07-24T15:07:57;21.70;61.00
81726;DHT22;71135;16.738;-14.648;2023-07-24T15:10:28;21.40;60.90
81726;DHT22;71135;16.738;-14.648;2023-07-24T15:13:10;21.20;61.30
81726;DHT22;71135;16.738;-14.648;2023-07-24T15:15:39;21.00;61.70
81726;DHT22;71135;16.738;-14.648;2023-07-24T15:18:09;20.80;62.00
81726;DHT22;71135;16.738;-14.648;2023-07-24T15:20:38;20.60;62.10
81726;DHT22;71135;16.738;-14.648;2023-07-24T15:23:10;20.40;62.40
81726;DHT22;71135;16.738;-14.648;2023-07-24T15:25:40;20.30;62.30
81726;DHT22;71135;16.738;-14.648;2023-07-24T15:28:12;20.10;62.40
81726;DHT22;71135;16.738;-14.648;2023-07-24T15:30:43;20.00;62.40
81726;DHT22;71135;16.738;-14.648;2023-07-24T15:33:15;19.90;62.40
81726;DHT22;71135;16.738;-14.648;2023-07-24T15:35:44;19.70;62.50
81726;DHT22;71135;16.738;-14.648;2023-07-24T15:38:14;19.50;62.40
81726;DHT22;71135;16.738;-14.648;2023-07-24T15:40:43;19.40;62.20
81726;DHT22;71135;16.738;-14.648;2023-07-24T15:43:15;19.30;62.10
81726;DHT22;71135;16.738;-14.648;2023-07-24T15:45:45;19.30;62.00
81726;DHT22;71135;16.738;-14.648;2023-07-24T15:48:14;19.20;62.10
81726;DHT22;71135;16.738;-14.648;2023-07-24T15:50:43;19.20;62.10
81726;DHT22;71135;16.738;-14.648;2023-07-24T15:53:13;19.20;62.00
81726;DHT22;71135;16.738;-14.648;2023-07-24T15:55:42;19.20;61.90
81726;DHT22;71135;16.738;-14.648;2023-07-24T15:58:17;19.10;62.00
81726;DHT22;71135;16.738;-14.648;2023-07-24T16:00:46;19.10;61.40
81726;DHT22;71135;16.738;-14.648;2023-07-24T16:03:16;19.20;61.20
81726;DHT22;71135;16.738;-14.648;2023-07-24T16:05:45;19.20;61.70
81726;DHT22;71135;16.738;-14.648;2023-07-24T16:08:14;19.30;61.70
81726;DHT22;71135;16.738;-14.648;2023-07-24T16:10:44;19.40;61.60
81726;DHT22;71135;16.738;-14.648;2023-07-24T16:13:13;19.40;61.50
81726;DHT22;71135;16.738;-14.648;2023-07-24T16:15:52;19.40;61.30
81726;DHT22;71135;16.738;-14.648;2023-07-24T16:18:22;19.30;61.20
81726;DHT22;71135;16.738;-14.648;2023-07-24T16:20:51;19.20;61.30
81726;DHT22;71135;16.738;-14.648;2023-07-24T16:23:21;19.20;61.80
81726;DHT22;71135;16.738;-14.648;2023-07-24T16:25:50;19.10;61.70
81726;DHT22;71135;16.738;-14.648;2023-07-24T16:28:19;19.20;61.60
81726;DHT22;71135;16.738;-14.648;2023-07-24T16:30:51;19.20;61.60
81726;DHT22;71135;16.738;-14.648;2023-07-24T16:33:23;19.10;61.60
81726;DHT22;71135;16.738;-14.648;2023-07-24T16:35:52;19.10;61.70
81726;DHT22;71135;16.738;-14.648;2023-07-24T16:38:22;19.00;61.70
81726;DHT22;71135;16.738;-14.648;2023-07-24T16:41:12;19.00;61.70
81726;DHT22;71135;16.738;-14.648;2023-07-24T16:43:47;18.90;61.70
81726;DHT22;71135;16.738;-14.648;2023-07-24T16:46:19;18.90;61.60
81726;DHT22;71135;16.738;-14.648;2023-07-24T16:55:43;18.70;62.00
81726;DHT22;71135;16.738;-14.648;2023-07-24T16:58:12;18.70;61.90
81726;DHT22;71135;16.738;-14.648;2023-07-24T17:00:42;18.70;61.60
81726;DHT22;71135;16.738;-14.648;2023-07-24T17:03:13;18.70;61.60
81726;DHT22;71135;16.738;-14.648;2023-07-24T17:05:43;18.80;61.50
81726;DHT22;71135;16.738;-14.648;2023-07-24T17:08:15;18.80;61.60
81726;DHT22;71135;16.738;-14.648;2023-07-24T17:10:46;18.80;62.00
81726;DHT22;71135;16.738;-14.648;2023-07-24T17:13:16;18.90;62.10
81726;DHT22;71135;16.738;-14.648;2023-07-24T17:15:46;18.90;62.20
81726;DHT22;71135;16.738;-14.648;2023-07-24T17:18:17;18.90;62.30
81726;DHT22;71135;16.738;-14.648;2023-07-24T17:20:48;19.00;62.40
81726;DHT22;71135;16.738;-14.648;2023-07-24T17:23:26;19.00;62.30
81726;DHT22;71135;16.738;-14.648;2023-07-24T17:25:55;19.00;62.20
81726;DHT22;71135;16.738;-14.648;2023-07-24T17:28:25;19.00;62.30
81726;DHT22;71135;16.738;-14.648;2023-07-24T17:30:54;19.00;62.40
81726;DHT22;71135;16.738;-14.648;2023-07-24T17:33:26;19.00;62.50
81726;DHT22;71135;16.738;-14.648;2023-07-24T17:35:55;18.90;62.60